Time;durP1;ratioP1;P1;durP2;ratioP2;P2;SDS_P1;SDS_P2;PMS_P1;PMS_P2;Temp;Humidity;BMP_temperature;BMP_pressure;BME280_temperature;BME280_humidity;BME280_pressure;Samples;Min_cycle;Max_cycle;Signal;HPM_P1;HPM_P2
2022/10/07 00:02:22;;;;;;;10.85;8.20;;;;;;;;;;5037577;28;20108;-68
2022/10/07 00:04:47;;;;;;;12.63;8.00;;;;;;;;;;5036039;28;20030;-68
2022/10/07 00:07:13;;;;;;;11.98;8.38;;;;;;;;;;5036428;28;20464;-68
2022/10/07 00:09:39;;;;;;;11.25;7.65;;;;;;;;;;5036483;28;20537;-69
2022/10/07 00:12:05;;;;;;;13.60;7.22;;;;;;;;;;5036708;28;20033;-71
2022/10/07 00:14:31;;;;;;;14.48;10.73;;;;;;;;;;5019166;28;20052;-69
2022/10/07 00:16:56;;;;;;;11.00;8.02;;;;;;;;;;5036543;28;20463;-68
2022/10/07 00:19:21;;;;;;;12.13;7.93;;;;;;;;;;5036822;28;20034;-69
2022/10/07 00:21:48;;;;;;;11.35;7.68;;;;;;;;;;5036619;28;20399;-68
2022/10/07 00:24:14;;;;;;;13.63;10.10;;;;;;;;;;5036728;28;20025;-69
2022/10/07 00:26:40;;;;;;;18.20;11.85;;;;;;;;;;5036618;28;20378;-70
2022/10/07 00:29:05;;;;;;;17.15;12.73;;;;;;;;;;5037029;28;20108;-69
2022/10/07 00:31:32;;;;;;;10.70;7.57;;;;;;;;;;5036718;28;20364;-69
2022/10/07 00:33:59;;;;;;;9.70;7.25;;;;;;;;;;5019057;28;20029;-69
2022/10/07 00:36:26;;;;;;;10.23;7.25;;;;;;;;;;5018444;28;20021;-69
2022/10/07 00:38:52;;;;;;;8.15;7.00;;;;;;;;;;5018484;28;20025;-70
2022/10/07 00:41:19;;;;;;;12.65;7.13;;;;;;;;;;5036644;28;20071;-68
2022/10/07 00:43:44;;;;;;;8.65;7.05;;;;;;;;;;5036499;28;20078;-68
2022/10/07 00:46:28;;;;;;;8.77;7.32;;;;;;;;;;5018806;28;20021;-69
2022/10/07 00:48:55;;;;;;;10.15;7.05;;;;;;;;;;5036618;28;20033;-70
2022/10/07 00:51:20;;;;;;;8.63;7.03;;;;;;;;;;5036470;28;20022;-68
2022/10/07 00:53:47;;;;;;;11.57;7.63;;;;;;;;;;5018220;28;20494;-69
2022/10/07 00:56:13;;;;;;;13.27;7.65;;;;;;;;;;5035850;28;20476;-71
2022/10/07 00:58:41;;;;;;;9.38;7.78;;;;;;;;;;5018590;28;20026;-70
2022/10/07 01:01:07;;;;;;;9.68;6.88;;;;;;;;;;5035294;28;20042;-70
2022/10/07 01:03:34;;;;;;;11.75;6.88;;;;;;;;;;5034753;28;20345;-70
2022/10/07 01:06:02;;;;;;;7.53;6.78;;;;;;;;;;5036169;28;20033;-69
2022/10/07 01:08:27;;;;;;;9.20;7.32;;;;;;;;;;5017869;28;20377;-70
2022/10/07 01:10:59;;;;;;;9.70;6.80;;;;;;;;;;5034491;28;20072;-70
2022/10/07 01:13:37;;;;;;;10.70;6.93;;;;;;;;;;5035871;28;20025;-70
2022/10/07 01:16:09;;;;;;;12.15;7.00;;;;;;;;;;5035723;28;20456;-70
2022/10/07 01:18:41;;;;;;;7.75;6.82;;;;;;;;;;5017911;28;20026;-66
2022/10/07 01:21:13;;;;;;;11.13;6.82;;;;;;;;;;5035477;28;20053;-66
2022/10/07 01:23:38;;;;;;;12.88;6.60;;;;;;;;;;5035879;28;20052;-68
2022/10/07 01:26:07;;;;;;;11.93;7.03;;;;;;;;;;5035368;28;20387;-68
2022/10/07 01:28:36;;;;;;;10.57;7.30;;;;;;;;;;5018263;28;20294;-69
2022/10/07 01:31:04;;;;;;;9.95;6.38;;;;;;;;;;5017822;28;20109;-69
2022/10/07 01:33:31;;;;;;;7.93;6.65;;;;;;;;;;5017423;28;20057;-69
2022/10/07 01:35:59;;;;;;;8.02;6.60;;;;;;;;;;5035071;28;20044;-69
2022/10/07 01:38:25;;;;;;;12.55;6.82;;;;;;;;;;5017419;28;20021;-69
2022/10/07 01:40:54;;;;;;;9.13;6.68;;;;;;;;;;5017332;28;20079;-70
2022/10/07 01:43:21;;;;;;;8.57;6.65;;;;;;;;;;5034041;28;20075;-70
2022/10/07 01:45:47;;;;;;;8.30;6.90;;;;;;;;;;5033984;28;20014;-70
2022/10/07 01:48:14;;;;;;;8.90;6.65;;;;;;;;;;5035367;28;20480;-70
2022/10/07 01:50:39;;;;;;;7.95;6.43;;;;;;;;;;5034851;28;20024;-70
2022/10/07 01:53:11;;;;;;;9.15;6.95;;;;;;;;;;5017118;28;20502;-69
2022/10/07 01:55:37;;;;;;;8.02;6.45;;;;;;;;;;5017796;28;20029;-70
2022/10/07 01:58:10;;;;;;;8.95;7.30;;;;;;;;;;5034731;28;20456;-70
2022/10/07 02:00:42;;;;;;;7.30;6.28;;;;;;;;;;5033252;28;20050;-66
2022/10/07 02:03:16;;;;;;;8.65;6.55;;;;;;;;;;5017051;28;20029;-67
2022/10/07 02:05:52;;;;;;;20.17;7.75;;;;;;;;;;5034539;28;20022;-67
2022/10/07 02:08:18;;;;;;;7.82;7.03;;;;;;;;;;5016778;28;20033;-69
2022/10/07 02:10:59;;;;;;;7.68;6.28;;;;;;;;;;5016756;28;20029;-68
2022/10/07 02:13:40;;;;;;;10.00;6.10;;;;;;;;;;5034048;28;20104;-66
2022/10/07 02:16:08;;;;;;;8.45;5.80;;;;;;;;;;5034397;28;20184;-66
2022/10/07 02:18:35;;;;;;;6.57;5.68;;;;;;;;;;5016676;28;20112;-67
2022/10/07 02:21:03;;;;;;;9.55;6.22;;;;;;;;;;5017026;28;20067;-66
2022/10/07 02:23:28;;;;;;;6.50;5.90;;;;;;;;;;5016794;28;20525;-67
2022/10/07 02:25:55;;;;;;;8.98;5.78;;;;;;;;;;5017121;28;20032;-68
2022/10/07 02:28:23;;;;;;;7.20;5.90;;;;;;;;;;5034140;28;20403;-68
2022/10/07 02:30:52;;;;;;;8.00;6.23;;;;;;;;;;5016448;28;20502;-66
2022/10/07 02:33:18;;;;;;;6.82;5.47;;;;;;;;;;5032799;28;20052;-68
2022/10/07 02:35:49;;;;;;;8.27;6.05;;;;;;;;;;5016606;28;20396;-68
2022/10/07 02:38:14;;;;;;;;;;;;;;;;;;5016732;28;20025;-67
2022/10/07 02:40:42;;;;;;;6.25;5.65;;;;;;;;;;5016333;28;19905;-68
2022/10/07 02:43:27;;;;;;;6.25;5.68;;;;;;;;;;5016669;28;20029;-68
2022/10/07 02:45:57;;;;;;;6.05;5.50;;;;;;;;;;5016324;28;20068;-68
2022/10/07 02:48:29;;;;;;;6.72;5.80;;;;;;;;;;5016255;28;20384;-69
2022/10/07 02:50:59;;;;;;;7.20;6.00;;;;;;;;;;4999808;28;20101;-67
2022/10/07 02:53:26;;;;;;;6.43;5.82;;;;;;;;;;5033961;28;20026;-68
2022/10/07 02:55:53;;;;;;;8.40;6.20;;;;;;;;;;5016586;28;20143;-68
2022/10/07 02:58:20;;;;;;;9.55;6.07;;;;;;;;;;5015998;28;20056;-68
2022/10/07 03:00:49;;;;;;;6.40;5.80;;;;;;;;;;5016482;28;20353;-66
2022/10/07 03:03:15;;;;;;;8.65;6.25;;;;;;;;;;5016174;28;20385;-70
2022/10/07 03:05:48;;;;;;;6.82;5.32;;;;;;;;;;5016224;28;20117;-69
2022/10/07 03:08:13;;;;;;;7.43;6.15;;;;;;;;;;5016147;28;20041;-70
2022/10/07 03:10:40;;;;;;;7.43;5.45;;;;;;;;;;5016717;28;20025;-69
2022/10/07 03:13:07;;;;;;;6.97;5.72;;;;;;;;;;5032359;28;20064;-69
2022/10/07 03:15:37;;;;;;;6.07;5.43;;;;;;;;;;5015834;28;20021;-66
2022/10/07 03:18:04;;;;;;;6.57;5.15;;;;;;;;;;4999750;28;20032;-68
2022/10/07 03:20:31;;;;;;;7.63;5.55;;;;;;;;;;5016739;28;20059;-70
2022/10/07 03:22:58;;;;;;;8.90;5.55;;;;;;;;;;5015976;28;20121;-70
2022/10/07 03:25:25;;;;;;;5.35;4.90;;;;;;;;;;5001524;28;20018;-70
2022/10/07 03:27:51;;;;;;;5.60;5.10;;;;;;;;;;5004008;28;20025;-70
2022/10/07 03:30:19;;;;;;;5.82;5.32;;;;;;;;;;5019802;28;20033;-70
2022/10/07 03:32:45;;;;;;;6.63;5.50;;;;;;;;;;5020427;28;20119;-70
2022/10/07 03:35:11;;;;;;;8.30;5.68;;;;;;;;;;5019696;28;20049;-70
2022/10/07 03:37:37;;;;;;;5.25;4.75;;;;;;;;;;5019541;28;20120;-70
2022/10/07 03:40:04;;;;;;;5.50;5.00;;;;;;;;;;5019890;28;20470;-69
2022/10/07 03:42:29;;;;;;;5.40;4.85;;;;;;;;;;5019502;28;20026;-71
2022/10/07 03:44:55;;;;;;;6.45;4.95;;;;;;;;;;5037363;28;20017;-69
2022/10/07 03:47:21;;;;;;;6.45;4.70;;;;;;;;;;5037167;28;20029;-69
2022/10/07 03:49:46;;;;;;;5.95;5.43;;;;;;;;;;5037845;28;20045;-68
2022/10/07 03:52:12;;;;;;;6.35;5.15;;;;;;;;;;5019006;28;20032;-69
2022/10/07 03:54:38;;;;;;;5.63;4.93;;;;;;;;;;5003006;28;20120;-70
2022/10/07 03:57:48;;;;;;;5.32;4.78;;;;;;;;;;5037030;28;20057;-69
2022/10/07 03:59:54;;;;;;;5.22;4.72;;;;;;;;;;5019064;28;20121;-70
2022/10/07 04:02:22;;;;;;;4.88;4.30;;;;;;;;;;5018904;28;20030;-70
2022/10/07 04:04:51;;;;;;;6.18;5.43;;;;;;;;;;5019100;28;20483;-70
2022/10/07 04:07:19;;;;;;;5.95;4.55;;;;;;;;;;5019089;28;20060;-69
2022/10/07 04:09:44;;;;;;;5.35;4.65;;;;;;;;;;5018057;28;20096;-71
2022/10/07 04:12:10;;;;;;;4.85;4.45;;;;;;;;;;5035507;28;20419;-69
2022/10/07 04:14:35;;;;;;;6.57;4.47;;;;;;;;;;5036201;28;20053;-74
2022/10/07 04:17:01;;;;;;;4.70;4.30;;;;;;;;;;5035944;28;20356;-73
2022/10/07 04:19:26;;;;;;;5.15;4.45;;;;;;;;;;5036042;28;20458;-71
2022/10/07 04:21:52;;;;;;;5.78;4.72;;;;;;;;;;5018181;28;20021;-73
2022/10/07 04:24:18;;;;;;;6.47;5.43;;;;;;;;;;5017042;28;20091;-72
2022/10/07 04:26:44;;;;;;;7.50;6.07;;;;;;;;;;5000747;28;20021;-73
2022/10/07 04:29:09;;;;;;;5.90;5.28;;;;;;;;;;5034845;28;20026;-73
2022/10/07 04:31:36;;;;;;;8.40;5.28;;;;;;;;;;5017386;28;20025;-73
2022/10/07 04:34:03;;;;;;;7.22;6.15;;;;;;;;;;5016823;28;20030;-71
2022/10/07 04:36:33;;;;;;;9.15;7.00;;;;;;;;;;4999895;28;20025;-72
2022/10/07 04:39:05;;;;;;;10.85;8.50;;;;;;;;;;5000343;28;20021;-72
2022/10/07 04:41:34;;;;;;;15.75;10.68;;;;;;;;;;5031573;28;20072;-74
2022/10/07 04:44:00;;;;;;;13.40;10.13;;;;;;;;;;4999506;28;20056;-73
2022/10/07 04:46:31;;;;;;;15.02;11.45;;;;;;;;;;5016052;28;20061;-73
2022/10/07 04:49:02;;;;;;;14.38;10.45;;;;;;;;;;5017231;28;20496;-73
2022/10/07 04:51:30;;;;;;;11.48;8.98;;;;;;;;;;5017159;28;20174;-73
2022/10/07 04:53:57;;;;;;;9.80;8.80;;;;;;;;;;5017120;28;20111;-74
2022/10/07 04:56:30;;;;;;;9.30;8.32;;;;;;;;;;5034763;28;20037;-73
2022/10/07 04:58:56;;;;;;;9.45;8.38;;;;;;;;;;5033425;28;20021;-74
2022/10/07 05:01:22;;;;;;;8.75;7.85;;;;;;;;;;5017086;28;20025;-73
2022/10/07 05:03:48;;;;;;;8.30;7.50;;;;;;;;;;5017114;28;20070;-73
2022/10/07 05:06:13;;;;;;;8.52;6.97;;;;;;;;;;5017230;28;20089;-73
2022/10/07 05:08:41;;;;;;;11.57;8.50;;;;;;;;;;5016471;28;20029;-72
2022/10/07 05:11:06;;;;;;;11.52;10.32;;;;;;;;;;5016878;28;20025;-72
2022/10/07 05:13:39;;;;;;;23.25;16.00;;;;;;;;;;5016847;28;20083;-72
2022/10/07 05:16:06;;;;;;;17.88;11.60;;;;;;;;;;5034613;28;20041;-72
2022/10/07 05:18:34;;;;;;;14.95;10.80;;;;;;;;;;5016826;28;20056;-73
2022/10/07 05:21:05;;;;;;;11.48;9.50;;;;;;;;;;5016771;28;20021;-72
2022/10/07 05:23:35;;;;;;;13.77;6.45;;;;;;;;;;5000647;28;20103;-73
2022/10/07 05:26:06;;;;;;;7.65;5.10;;;;;;;;;;5000849;28;20052;-73
2022/10/07 05:28:34;;;;;;;6.75;5.47;;;;;;;;;;5034096;28;20110;-74
2022/10/07 05:31:00;;;;;;;7.75;5.70;;;;;;;;;;5001082;28;20018;-74
2022/10/07 05:33:28;;;;;;;8.82;6.85;;;;;;;;;;5017955;28;20029;-73
2022/10/07 05:35:53;;;;;;;8.88;5.45;;;;;;;;;;5017509;28;20052;-72
2022/10/07 05:38:19;;;;;;;11.75;6.45;;;;;;;;;;5032413;28;20502;-74
2022/10/07 05:40:45;;;;;;;10.57;8.00;;;;;;;;;;5000723;28;20014;-72
2022/10/07 05:43:12;;;;;;;11.90;8.40;;;;;;;;;;5033132;28;20045;-74
2022/10/07 05:45:38;;;;;;;15.07;10.27;;;;;;;;;;5034430;28;20022;-74
2022/10/07 05:48:04;;;;;;;13.07;7.32;;;;;;;;;;5015623;28;20035;-73
2022/10/07 05:50:29;;;;;;;11.65;7.72;;;;;;;;;;5016415;28;20024;-73
2022/10/07 05:52:56;;;;;;;7.28;4.60;;;;;;;;;;5017121;28;20022;-74
2022/10/07 05:55:22;;;;;;;7.32;4.30;;;;;;;;;;5017071;28;20025;-73
2022/10/07 05:57:48;;;;;;;5.57;4.20;;;;;;;;;;5016938;28;20041;-74
2022/10/07 06:00:13;;;;;;;4.47;3.90;;;;;;;;;;5034545;28;20045;-74
2022/10/07 06:02:39;;;;;;;5.00;3.97;;;;;;;;;;5034897;28;20594;-73
2022/10/07 06:05:05;;;;;;;5.72;4.00;;;;;;;;;;5016915;28;20032;-74
2022/10/07 06:07:31;;;;;;;4.95;4.22;;;;;;;;;;5017135;28;20035;-73
2022/10/07 06:15:28;;;;;;;3.95;3.58;;;;;;;;;;5034982;28;20109;-73
2022/10/07 06:17:54;;;;;;;4.40;3.70;;;;;;;;;;5034334;28;20032;-73
2022/10/07 06:20:21;;;;;;;4.50;3.50;;;;;;;;;;5017158;28;20116;-74
2022/10/07 06:22:51;;;;;;;4.60;3.67;;;;;;;;;;5016637;28;20464;-73
2022/10/07 06:25:18;;;;;;;5.57;3.35;;;;;;;;;;5017082;28;20025;-73
2022/10/07 06:27:44;;;;;;;4.45;3.83;;;;;;;;;;5016579;28;20017;-74
2022/10/07 06:30:11;;;;;;;3.53;3.22;;;;;;;;;;5033472;28;20037;-72
2022/10/07 06:32:37;;;;;;;4.25;3.35;;;;;;;;;;5016425;28;20029;-73
2022/10/07 06:35:03;;;;;;;3.97;3.30;;;;;;;;;;5016436;28;20083;-73
2022/10/07 06:37:30;;;;;;;4.10;3.28;;;;;;;;;;5034303;28;20025;-73
2022/10/07 06:39:56;;;;;;;6.15;4.00;;;;;;;;;;5016348;28;20029;-73
2022/10/07 06:42:21;;;;;;;4.05;3.40;;;;;;;;;;5016308;28;20017;-73
2022/10/07 06:45:15;;;;;;;5.95;3.83;;;;;;;;;;5020356;28;20045;-74
2022/10/07 06:47:41;;;;;;;6.20;3.50;;;;;;;;;;4999908;28;20038;-73
2022/10/07 06:50:07;;;;;;;4.00;3.00;;;;;;;;;;5016224;28;20029;-74
2022/10/07 06:52:32;;;;;;;5.10;3.00;;;;;;;;;;5016715;28;20036;-73
2022/10/07 06:54:58;;;;;;;3.95;2.92;;;;;;;;;;5032575;28;20040;-73
2022/10/07 06:57:28;;;;;;;3.33;3.00;;;;;;;;;;5017111;28;20121;-74
2022/10/07 06:59:55;;;;;;;4.07;3.00;;;;;;;;;;5015590;28;20045;-73
2022/10/07 07:02:20;;;;;;;4.18;3.08;;;;;;;;;;5015992;28;20117;-73
2022/10/07 07:04:47;;;;;;;5.38;3.05;;;;;;;;;;5034010;28;20105;-72
2022/10/07 07:07:14;;;;;;;3.22;2.92;;;;;;;;;;4999722;28;20395;-73
2022/10/07 07:09:39;;;;;;;9.20;3.65;;;;;;;;;;5016812;28;20041;-73
2022/10/07 07:12:06;;;;;;;4.68;3.30;;;;;;;;;;5016574;28;20057;-73
2022/10/07 07:14:38;;;;;;;3.03;2.83;;;;;;;;;;5032715;28;20022;-74
2022/10/07 07:17:08;;;;;;;5.05;2.70;;;;;;;;;;5032815;28;20030;-74
2022/10/07 07:19:34;;;;;;;4.13;2.78;;;;;;;;;;5015857;28;20108;-73
2022/10/07 07:22:02;;;;;;;4.40;2.70;;;;;;;;;;5032269;28;20029;-73
2022/10/07 07:24:27;;;;;;;3.92;2.78;;;;;;;;;;5033795;28;20025;-74
2022/10/07 07:26:52;;;;;;;4.95;2.90;;;;;;;;;;5015849;28;20375;-74
2022/10/07 07:29:19;;;;;;;3.15;2.70;;;;;;;;;;5015730;28;20034;-74
2022/10/07 07:31:49;;;;;;;2.90;2.58;;;;;;;;;;5015748;28;20464;-72
2022/10/07 07:34:17;;;;;;;4.38;2.75;;;;;;;;;;5015725;28;20025;-73
2022/10/07 07:36:46;;;;;;;5.65;3.20;;;;;;;;;;5015646;28;20028;-74
2022/10/07 07:39:13;;;;;;;5.38;3.17;;;;;;;;;;5015649;28;20033;-74
2022/10/07 07:41:40;;;;;;;3.92;2.80;;;;;;;;;;5015933;28;20116;-73
2022/10/07 07:44:10;;;;;;;6.00;2.80;;;;;;;;;;5015645;28;20445;-73
2022/10/07 07:46:38;;;;;;;3.90;2.80;;;;;;;;;;5015590;28;20029;-73
2022/10/07 07:49:04;;;;;;;3.60;2.53;;;;;;;;;;5015583;28;20083;-73
2022/10/07 07:51:32;;;;;;;2.92;2.65;;;;;;;;;;4999563;28;20022;-73
2022/10/07 07:53:58;;;;;;;11.63;2.85;;;;;;;;;;5032553;28;20030;-74
2022/10/07 07:56:24;;;;;;;3.92;2.58;;;;;;;;;;5015438;28;20108;-73
2022/10/07 07:58:50;;;;;;;3.38;3.00;;;;;;;;;;5031904;22;20445;-72
2022/10/07 08:01:17;;;;;;;5.15;2.70;;;;;;;;;;5035168;28;20107;-72
2022/10/07 08:03:45;;;;;;;4.00;2.70;;;;;;;;;;5035215;28;20017;-73
2022/10/07 08:06:12;;;;;;;3.22;2.50;;;;;;;;;;5019097;28;20080;-73
2022/10/07 08:08:37;;;;;;;4.00;2.83;;;;;;;;;;5035173;28;20037;-72
2022/10/07 08:11:10;;;;;;;3.00;2.67;;;;;;;;;;5011924;22;20023;-72
2022/10/07 08:17:13;;;;;;;4.78;2.80;;;;;;;;;;5017370;28;20395;-73
2022/10/07 08:19:39;;;;;;;6.20;2.70;;;;;;;;;;5036903;28;20038;-73
2022/10/07 08:22:06;;;;;;;7.00;2.70;;;;;;;;;;5035479;28;20048;-72
2022/10/07 08:24:32;;;;;;;4.75;2.75;;;;;;;;;;5035301;28;20096;-73
2022/10/07 08:26:57;;;;;;;5.55;2.90;;;;;;;;;;5036777;28;20506;-74
2022/10/07 08:29:23;;;;;;;3.83;2.95;;;;;;;;;;5035225;28;20021;-74
2022/10/07 08:31:48;;;;;;;3.30;3.00;;;;;;;;;;5035464;28;20025;-74
2022/10/07 08:34:14;;;;;;;5.70;2.85;;;;;;;;;;5035711;28;20017;-73
2022/10/07 08:36:42;;;;;;;3.22;2.90;;;;;;;;;;5036517;28;20048;-74
2022/10/07 08:39:09;;;;;;;3.53;3.00;;;;;;;;;;5036817;28;20426;-74
2022/10/07 08:41:44;;;;;;;6.97;3.10;;;;;;;;;;5036705;28;20033;-71
2022/10/07 08:44:16;;;;;;;3.17;2.88;;;;;;;;;;5036499;28;20033;-73
2022/10/07 08:46:57;;;;;;;4.05;2.83;;;;;;;;;;5036428;28;20384;-72
2022/10/07 08:49:26;;;;;;;3.17;2.90;;;;;;;;;;5018742;28;20071;-72
2022/10/07 08:52:05;;;;;;;6.88;3.35;;;;;;;;;;5036070;28;20108;-73
2022/10/07 08:54:32;;;;;;;3.50;3.20;;;;;;;;;;5035992;28;20418;-73
2022/10/07 08:57:03;;;;;;;3.78;3.42;;;;;;;;;;5036158;28;20021;-72
2022/10/07 08:59:33;;;;;;;5.30;2.97;;;;;;;;;;5035911;28;20502;-73
2022/10/07 09:02:04;;;;;;;3.30;3.00;;;;;;;;;;5018524;28;20022;-73
2022/10/07 09:04:36;;;;;;;3.17;2.88;;;;;;;;;;5036114;28;20053;-71
2022/10/07 09:07:06;;;;;;;3.55;3.25;;;;;;;;;;5035754;28;20522;-73
2022/10/07 09:09:39;;;;;;;3.97;3.47;;;;;;;;;;5018002;28;20376;-72
2022/10/07 09:12:08;;;;;;;3.70;3.47;;;;;;;;;;5034449;28;20480;-71
2022/10/07 09:14:38;;;;;;;4.55;4.05;;;;;;;;;;5035914;28;20378;-72
2022/10/07 09:17:11;;;;;;;7.70;3.25;;;;;;;;;;5051128;28;20044;-72
2022/10/07 09:19:45;;;;;;;4.88;4.13;;;;;;;;;;5053715;28;20044;-72
2022/10/07 09:22:15;;;;;;;3.83;3.17;;;;;;;;;;5055434;28;20494;-72
2022/10/07 09:24:41;;;;;;;6.90;3.63;;;;;;;;;;5055380;28;20104;-73
2022/10/07 09:27:11;;;;;;;7.07;3.92;;;;;;;;;;5055876;28;20059;-72
2022/10/07 09:29:37;;;;;;;6.00;4.23;;;;;;;;;;5055336;28;20056;-72
2022/10/07 09:32:02;;;;;;;6.80;3.95;;;;;;;;;;5055257;28;20446;-72
2022/10/07 09:34:29;;;;;;;4.57;4.18;;;;;;;;;;5055438;28;20025;-72
2022/10/07 09:37:06;;;;;;;3.75;3.28;;;;;;;;;;5055323;28;20021;-73
2022/10/07 09:39:32;;;;;;;5.72;3.63;;;;;;;;;;5055023;28;20104;-73
2022/10/07 09:41:57;;;;;;;8.25;4.15;;;;;;;;;;5055073;28;20020;-72
2022/10/07 09:44:25;;;;;;;5.68;4.30;;;;;;;;;;5055535;28;20021;-72
2022/10/07 09:46:52;;;;;;;4.85;4.10;;;;;;;;;;5055213;28;20025;-72
2022/10/07 09:49:26;;;;;;;4.30;3.90;;;;;;;;;;5055169;28;20033;-71
2022/10/07 09:52:03;;;;;;;6.45;3.40;;;;;;;;;;5036998;28;20025;-73
2022/10/07 09:54:30;;;;;;;4.53;4.13;;;;;;;;;;5054800;28;20112;-72
2022/10/07 09:56:56;;;;;;;4.70;4.20;;;;;;;;;;5054695;28;20483;-73
2022/10/07 09:59:26;;;;;;;3.80;3.47;;;;;;;;;;5036816;28;20025;-72
2022/10/07 10:01:53;;;;;;;5.47;4.50;;;;;;;;;;5054651;28;20025;-72
2022/10/07 10:04:20;;;;;;;4.57;4.25;;;;;;;;;;5054899;28;20029;-72
2022/10/07 10:06:46;;;;;;;4.57;3.92;;;;;;;;;;5054562;28;20029;-71
2022/10/07 10:09:13;;;;;;;4.30;3.90;;;;;;;;;;5054489;28;20021;-72
2022/10/07 10:11:38;;;;;;;5.00;4.22;;;;;;;;;;5054755;28;20036;-72
2022/10/07 10:14:22;;;;;;;8.90;4.68;;;;;;;;;;5054665;28;20075;-72
2022/10/07 10:16:48;;;;;;;4.85;4.15;;;;;;;;;;5054108;28;20037;-72
2022/10/07 10:19:24;;;;;;;5.25;4.03;;;;;;;;;;5054492;28;20411;-72
2022/10/07 10:21:51;;;;;;;4.68;4.38;;;;;;;;;;5054569;28;20049;-73
2022/10/07 10:24:16;;;;;;;5.57;3.90;;;;;;;;;;5053625;28;20053;-72
2022/10/07 10:26:41;;;;;;;3.00;2.38;;;;;;;;;;5054467;28;20067;-71
2022/10/07 10:29:30;;;;;;;3.58;2.97;;;;;;;;;;5054179;28;20025;-72
2022/10/07 10:32:05;;;;;;;4.60;3.17;;;;;;;;;;5033381;28;20037;-72
2022/10/07 10:34:45;;;;;;;3.10;2.80;;;;;;;;;;5052586;28;20376;-73
2022/10/07 10:37:10;;;;;;;;;;;;;;;;;;5054692;28;20025;-72
2022/10/07 10:40:06;;;;;;;4.50;3.88;;;;;;;;;;5053415;28;19931;-72
2022/10/07 10:42:37;;;;;;;3.30;3.00;;;;;;;;;;5017349;28;20049;-73
2022/10/07 10:45:06;;;;;;;2.53;2.15;;;;;;;;;;5035751;28;20025;-72
2022/10/07 10:47:35;;;;;;;2.55;2.35;;;;;;;;;;5053937;28;20028;-73
2022/10/07 10:50:05;;;;;;;3.42;3.17;;;;;;;;;;5036559;28;20114;-72
2022/10/07 10:52:36;;;;;;;5.95;3.22;;;;;;;;;;5053688;28;20104;-71
2022/10/07 10:55:20;;;;;;;2.70;2.50;;;;;;;;;;5053619;28;20020;-73
2022/10/07 10:57:53;;;;;;;4.03;3.65;;;;;;;;;;5051924;28;20029;-72
2022/10/07 11:00:20;;;;;;;3.42;3.22;;;;;;;;;;5034263;28;20430;-73
2022/10/07 11:03:18;;;;;;;3.95;3.13;;;;;;;;;;5053141;28;20099;-74
2022/10/07 11:05:44;;;;;;;4.00;3.70;;;;;;;;;;5030347;28;20123;-74
2022/10/07 11:08:16;;;;;;;3.58;3.28;;;;;;;;;;5053134;28;20029;-74
2022/10/07 11:10:47;;;;;;;3.97;3.58;;;;;;;;;;5053139;28;20506;-74
2022/10/07 11:13:14;;;;;;;4.00;3.55;;;;;;;;;;5052713;28;20159;-73
2022/10/07 11:15:48;;;;;;;2.95;2.75;;;;;;;;;;5053514;28;20502;-72
2022/10/07 11:18:37;;;;;;;4.47;3.45;;;;;;;;;;5053751;28;20120;-71
2022/10/07 11:21:06;;;;;;;5.38;3.58;;;;;;;;;;5054057;28;20075;-71
2022/10/07 11:23:35;;;;;;;3.97;3.63;;;;;;;;;;5053739;28;20024;-72
2022/10/07 11:26:00;;;;;;;4.07;3.60;;;;;;;;;;5053420;28;20072;-72
2022/10/07 11:28:27;;;;;;;4.40;3.40;;;;;;;;;;5053706;28;20021;-71
2022/10/07 11:31:14;;;;;;;3.50;3.30;;;;;;;;;;5053649;28;20098;-72
2022/10/07 11:33:43;;;;;;;3.60;3.33;;;;;;;;;;5046420;28;20081;-72
2022/10/07 11:36:13;;;;;;;3.20;2.90;;;;;;;;;;5035439;28;20352;-72
2022/10/07 11:38:38;;;;;;;4.93;3.50;;;;;;;;;;5053332;28;20036;-72
2022/10/07 11:41:06;;;;;;;6.43;3.92;;;;;;;;;;5052434;28;20021;-73
2022/10/07 11:43:46;;;;;;;41.70;16.15;;;;;;;;;;5035416;28;20497;-71
2022/10/07 11:46:30;;;;;;;47.17;17.90;;;;;;;;;;5054974;28;20064;-71
2022/10/07 11:49:02;;;;;;;9.95;6.22;;;;;;;;;;5039877;28;20025;-72
2022/10/07 11:51:31;;;;;;;3.72;3.10;;;;;;;;;;5057414;28;20033;-72
2022/10/07 11:53:59;;;;;;;3.38;2.80;;;;;;;;;;5039169;28;20541;-72
2022/10/07 11:56:26;;;;;;;4.65;2.95;;;;;;;;;;5057290;28;20039;-73
2022/10/07 11:58:59;;;;;;;3.45;3.10;;;;;;;;;;5057236;28;20016;-72
2022/10/07 12:01:30;;;;;;;164.13;51.80;;;;;;;;;;5039072;28;20087;-72
2022/10/07 12:03:55;;;;;;;15.20;8.02;;;;;;;;;;5057425;28;20024;-72
2022/10/07 12:06:20;;;;;;;2.38;2.17;;;;;;;;;;5055629;28;20047;-72
2022/10/07 12:08:46;;;;;;;2.38;2.17;;;;;;;;;;5057045;28;20064;-73
2022/10/07 12:11:11;;;;;;;3.13;2.53;;;;;;;;;;5057060;28;20032;-72
2022/10/07 12:14:06;;;;;;;3.13;2.30;;;;;;;;;;5056975;28;20029;-73
2022/10/07 12:16:31;;;;;;;4.35;2.70;;;;;;;;;;5034024;28;20049;-72
2022/10/07 12:19:05;;;;;;;3.00;2.70;;;;;;;;;;5038701;28;20598;-72
2022/10/07 12:21:48;;;;;;;5.80;2.47;;;;;;;;;;5056851;28;20091;-73
2022/10/07 12:24:14;;;;;;;2.80;2.60;;;;;;;;;;5056833;28;20054;-72
2022/10/07 12:26:42;;;;;;;4.65;2.60;;;;;;;;;;5056773;28;20107;-72
2022/10/07 12:29:17;;;;;;;3.65;2.25;;;;;;;;;;5056713;28;20037;-73
2022/10/07 12:31:45;;;;;;;6.47;2.83;;;;;;;;;;5056386;28;20091;-72
2022/10/07 12:34:10;;;;;;;2.90;2.70;;;;;;;;;;5056559;28;20025;-71
2022/10/07 12:36:41;;;;;;;2.53;2.33;;;;;;;;;;5038391;28;20029;-72
2022/10/07 12:39:10;;;;;;;4.57;2.33;;;;;;;;;;5039038;28;20025;-72
2022/10/07 12:41:37;;;;;;;2.45;2.15;;;;;;;;;;5055069;28;20021;-72
2022/10/07 12:44:06;;;;;;;4.22;2.13;;;;;;;;;;5038274;28;20052;-72
2022/10/07 12:46:37;;;;;;;3.40;2.47;;;;;;;;;;5055229;28;20025;-72
2022/10/07 12:49:05;;;;;;;3.88;2.33;;;;;;;;;;5054913;28;20037;-72
2022/10/07 12:51:37;;;;;;;3.90;1.88;;;;;;;;;;5038680;28;20398;-74
2022/10/07 12:54:04;;;;;;;2.80;2.13;;;;;;;;;;5054709;28;20032;-74
2022/10/07 12:56:30;;;;;;;4.22;2.65;;;;;;;;;;5054907;28;20047;-73
2022/10/07 13:01:51;;;;;;;;;;;;;;;;;;5053979;28;20438;-74
2022/10/07 13:04:37;;;;;;;5.33;1.77;;;;;;;;;;5054957;28;19905;-74
2022/10/07 13:07:19;;;;;;;3.38;2.05;;;;;;;;;;5054819;28;20124;-73
2022/10/07 13:09:56;;;;;;;3.25;2.20;;;;;;;;;;5054707;28;20072;-73
2022/10/07 13:12:42;;;;;;;2.08;1.77;;;;;;;;;;5036881;28;20044;-74
2022/10/07 13:15:25;;;;;;;4.25;2.30;;;;;;;;;;5054080;28;20056;-73
2022/10/07 13:17:56;;;;;;;4.50;2.58;;;;;;;;;;5036632;28;20156;-73
2022/10/07 13:20:32;;;;;;;3.60;2.90;;;;;;;;;;5054708;28;20062;-73
2022/10/07 13:23:19;;;;;;;5.40;2.42;;;;;;;;;;5054361;28;20424;-73
2022/10/07 13:25:51;;;;;;;3.38;2.47;;;;;;;;;;5053411;28;20432;-74
2022/10/07 13:28:21;;;;;;;2.83;2.63;;;;;;;;;;5054243;28;20394;-74
2022/10/07 13:30:47;;;;;;;5.15;2.60;;;;;;;;;;5054401;28;20021;-74
2022/10/07 13:33:16;;;;;;;5.13;2.75;;;;;;;;;;5053069;28;20029;-74
2022/10/07 13:35:41;;;;;;;3.40;2.55;;;;;;;;;;5054200;28;20013;-74
2022/10/07 13:38:19;;;;;;;3.17;2.80;;;;;;;;;;5054183;28;20063;-74
2022/10/07 13:40:51;;;;;;;3.08;2.33;;;;;;;;;;5054093;28;20017;-73
2022/10/07 13:43:16;;;;;;;3.83;2.33;;;;;;;;;;5036066;28;20029;-73
2022/10/07 13:45:43;;;;;;;3.30;2.50;;;;;;;;;;5053947;28;20052;-71
2022/10/07 13:48:16;;;;;;;3.17;2.47;;;;;;;;;;5053163;28;20032;-70
2022/10/07 13:50:43;;;;;;;3.13;2.67;;;;;;;;;;5053900;28;20051;-70
2022/10/07 13:53:20;;;;;;;4.07;2.33;;;;;;;;;;5053616;28;20475;-71
2022/10/07 13:55:46;;;;;;;2.65;2.35;;;;;;;;;;5054509;28;20443;-70
2022/10/07 13:58:12;;;;;;;2.60;2.40;;;;;;;;;;5055581;28;20116;-73
2022/10/07 14:00:41;;;;;;;5.53;2.35;;;;;;;;;;5053982;28;20021;-70
2022/10/07 14:03:16;;;;;;;3.05;2.63;;;;;;;;;;5053124;28;20017;-70
2022/10/07 14:05:51;;;;;;;3.97;2.90;;;;;;;;;;5054028;28;20417;-71
2022/10/07 14:08:20;;;;;;;4.47;2.75;;;;;;;;;;5035755;28;20447;-72
2022/10/07 14:11:05;;;;;;;3.25;2.70;;;;;;;;;;5052807;28;20391;-73
2022/10/07 14:13:31;;;;;;;3.03;2.83;;;;;;;;;;5053494;28;20119;-70
2022/10/07 14:15:57;;;;;;;2.20;2.10;;;;;;;;;;5052252;28;20048;-71
2022/10/07 14:18:23;;;;;;;3.95;2.63;;;;;;;;;;5053611;28;20033;-71
2022/10/07 14:20:50;;;;;;;2.70;2.50;;;;;;;;;;5054096;28;20040;-72
2022/10/07 14:23:18;;;;;;;3.38;2.80;;;;;;;;;;5035846;28;20025;-71
2022/10/07 14:25:45;;;;;;;6.53;2.63;;;;;;;;;;5054143;28;20021;-72
2022/10/07 14:28:23;;;;;;;3.17;2.58;;;;;;;;;;5035995;28;20033;-72
2022/10/07 14:37:15;;;;;;;4.18;2.13;;;;;;;;;;5052846;28;20052;-73
2022/10/07 14:39:41;;;;;;;3.20;3.00;;;;;;;;;;5052928;28;20037;-73
2022/10/07 14:42:14;;;;;;;5.60;3.00;;;;;;;;;;5052620;28;20021;-72
2022/10/07 14:44:43;;;;;;;4.57;2.70;;;;;;;;;;5051624;28;20158;-72
2022/10/07 14:47:12;;;;;;;2.60;2.40;;;;;;;;;;5052789;28;20059;-72
2022/10/07 14:49:41;;;;;;;3.65;2.90;;;;;;;;;;5052763;28;20037;-72
2022/10/07 14:52:09;;;;;;;3.08;2.63;;;;;;;;;;5052662;28;20499;-73
2022/10/07 14:54:34;;;;;;;3.75;3.22;;;;;;;;;;5052483;28;20108;-72
2022/10/07 14:57:00;;;;;;;3.72;2.53;;;;;;;;;;5052854;28;20028;-73
2022/10/07 14:59:25;;;;;;;5.65;2.97;;;;;;;;;;5052601;28;20036;-71
2022/10/07 15:01:51;;;;;;;4.82;2.80;;;;;;;;;;5052591;28;20104;-72
2022/10/07 15:04:17;;;;;;;4.93;2.88;;;;;;;;;;5052568;28;20032;-71
2022/10/07 15:06:42;;;;;;;3.22;2.63;;;;;;;;;;5034740;28;20036;-70
2022/10/07 15:09:10;;;;;;;3.47;2.83;;;;;;;;;;5034761;28;20033;-71
2022/10/07 15:11:36;;;;;;;5.70;3.30;;;;;;;;;;5052442;28;20061;-73